sensor_id;sensor_type;location;lat;lon;timestamp;pressure;altitude;pressure_sealevel;temperature
19666;BMP180;9980;51.020;7.772;2023-09-19T00:00:47;96876.00;;;19.90
19666;BMP180;9980;51.020;7.772;2023-09-19T00:03:16;96870.00;;;19.90
19666;BMP180;9980;51.020;7.772;2023-09-19T00:05:43;96872.00;;;19.90
19666;BMP180;9980;51.020;7.772;2023-09-19T00:08:11;96883.00;;;19.90
19666;BMP180;9980;51.020;7.772;2023-09-19T00:10:40;96895.00;;;19.80
19666;BMP180;9980;51.020;7.772;2023-09-19T00:13:09;96884.00;;;19.80
19666;BMP180;9980;51.020;7.772;2023-09-19T00:15:45;96891.00;;;19.80
19666;BMP180;9980;51.020;7.772;2023-09-19T00:18:19;96884.00;;;19.70
19666;BMP180;9980;51.020;7.772;2023-09-19T00:20:48;96890.00;;;19.70
19666;BMP180;9980;51.020;7.772;2023-09-19T00:23:19;96888.00;;;19.70
19666;BMP180;9980;51.020;7.772;2023-09-19T00:25:47;96889.00;;;19.70
19666;BMP180;9980;51.020;7.772;2023-09-19T00:28:14;96922.00;;;19.70
19666;BMP180;9980;51.020;7.772;2023-09-19T00:30:46;96890.00;;;19.60
19666;BMP180;9980;51.020;7.772;2023-09-19T00:33:18;96903.00;;;19.70
19666;BMP180;9980;51.020;7.772;2023-09-19T00:35:52;96910.00;;;19.60
19666;BMP180;9980;51.020;7.772;2023-09-19T00:38:21;96905.00;;;19.60
19666;BMP180;9980;51.020;7.772;2023-09-19T00:40:50;96898.00;;;19.60
19666;BMP180;9980;51.020;7.772;2023-09-19T00:43:21;96905.00;;;19.60
19666;BMP180;9980;51.020;7.772;2023-09-19T00:45:55;96895.00;;;19.50
19666;BMP180;9980;51.020;7.772;2023-09-19T00:48:23;96907.00;;;19.50
19666;BMP180;9980;51.020;7.772;2023-09-19T00:50:52;96912.00;;;19.50
19666;BMP180;9980;51.020;7.772;2023-09-19T00:53:22;96910.00;;;19.40
19666;BMP180;9980;51.020;7.772;2023-09-19T00:55:51;96900.00;;;19.40
19666;BMP180;9980;51.020;7.772;2023-09-19T00:58:19;96896.00;;;19.40
19666;BMP180;9980;51.020;7.772;2023-09-19T01:00:49;96905.00;;;19.30
19666;BMP180;9980;51.020;7.772;2023-09-19T01:03:17;96901.00;;;19.30
19666;BMP180;9980;51.020;7.772;2023-09-19T01:05:45;96904.00;;;19.30
19666;BMP180;9980;51.020;7.772;2023-09-19T01:08:12;96911.00;;;19.30
19666;BMP180;9980;51.020;7.772;2023-09-19T01:11:20;96918.00;;;19.10
19666;BMP180;9980;51.020;7.772;2023-09-19T01:14:17;96928.00;;;19.10
19666;BMP180;9980;51.020;7.772;2023-09-19T01:17:00;96932.00;;;19.10
19666;BMP180;9980;51.020;7.772;2023-09-19T01:20:15;96923.00;;;19.00
19666;BMP180;9980;51.020;7.772;2023-09-19T01:23:04;96917.00;;;18.90
19666;BMP180;9980;51.020;7.772;2023-09-19T01:26:04;96927.00;;;18.90
19666;BMP180;9980;51.020;7.772;2023-09-19T01:31:11;96931.00;;;18.80
19666;BMP180;9980;51.020;7.772;2023-09-19T01:34:00;96925.00;;;18.80
19666;BMP180;9980;51.020;7.772;2023-09-19T01:36:31;96941.00;;;18.80
19666;BMP180;9980;51.020;7.772;2023-09-19T01:39:12;96936.00;;;18.80
19666;BMP180;9980;51.020;7.772;2023-09-19T01:41:55;96936.00;;;18.70
19666;BMP180;9980;51.020;7.772;2023-09-19T01:47:40;96936.00;;;18.60
19666;BMP180;9980;51.020;7.772;2023-09-19T01:50:30;96937.00;;;18.60
19666;BMP180;9980;51.020;7.772;2023-09-19T01:53:15;96941.00;;;18.60
19666;BMP180;9980;51.020;7.772;2023-09-19T01:55:49;96935.00;;;18.60
19666;BMP180;9980;51.020;7.772;2023-09-19T01:58:44;96932.00;;;18.60
19666;BMP180;9980;51.020;7.772;2023-09-19T02:01:19;96942.00;;;18.60
19666;BMP180;9980;51.020;7.772;2023-09-19T02:03:48;96925.00;;;18.60
19666;BMP180;9980;51.020;7.772;2023-09-19T02:06:17;96947.00;;;18.60
19666;BMP180;9980;51.020;7.772;2023-09-19T02:08:45;96936.00;;;18.60
19666;BMP180;9980;51.020;7.772;2023-09-19T02:11:14;96938.00;;;18.60
19666;BMP180;9980;51.020;7.772;2023-09-19T02:13:42;96936.00;;;18.60
19666;BMP180;9980;51.020;7.772;2023-09-19T02:16:11;96942.00;;;18.60
19666;BMP180;9980;51.020;7.772;2023-09-19T02:18:39;96949.00;;;18.60
19666;BMP180;9980;51.020;7.772;2023-09-19T02:21:06;96956.00;;;18.60
19666;BMP180;9980;51.020;7.772;2023-09-19T02:23:33;96959.00;;;18.60
19666;BMP180;9980;51.020;7.772;2023-09-19T02:26:00;96943.00;;;18.60
19666;BMP180;9980;51.020;7.772;2023-09-19T02:28:27;96958.00;;;18.60
19666;BMP180;9980;51.020;7.772;2023-09-19T02:30:59;96953.00;;;18.60
19666;BMP180;9980;51.020;7.772;2023-09-19T02:33:26;96963.00;;;18.60
19666;BMP180;9980;51.020;7.772;2023-09-19T02:35:56;96960.00;;;18.60
19666;BMP180;9980;51.020;7.772;2023-09-19T02:38:30;96956.00;;;18.60
19666;BMP180;9980;51.020;7.772;2023-09-19T02:40:57;96964.00;;;18.60
19666;BMP180;9980;51.020;7.772;2023-09-19T02:43:24;96957.00;;;18.60
19666;BMP180;9980;51.020;7.772;2023-09-19T02:45:52;96961.00;;;18.60
19666;BMP180;9980;51.020;7.772;2023-09-19T02:48:22;96978.00;;;18.60
19666;BMP180;9980;51.020;7.772;2023-09-19T02:50:52;96962.00;;;18.50
19666;BMP180;9980;51.020;7.772;2023-09-19T02:53:19;96974.00;;;18.50
19666;BMP180;9980;51.020;7.772;2023-09-19T02:55:47;96977.00;;;18.50
19666;BMP180;9980;51.020;7.772;2023-09-19T02:58:15;96974.00;;;18.50
19666;BMP180;9980;51.020;7.772;2023-09-19T03:00:42;96967.00;;;18.50
19666;BMP180;9980;51.020;7.772;2023-09-19T03:03:13;96974.00;;;18.50
19666;BMP180;9980;51.020;7.772;2023-09-19T03:05:42;96977.00;;;18.50
19666;BMP180;9980;51.020;7.772;2023-09-19T03:08:15;96976.00;;;18.50
19666;BMP180;9980;51.020;7.772;2023-09-19T03:10:46;96980.00;;;18.50
19666;BMP180;9980;51.020;7.772;2023-09-19T03:13:14;96983.00;;;18.50
19666;BMP180;9980;51.020;7.772;2023-09-19T03:15:42;96983.00;;;18.40
19666;BMP180;9980;51.020;7.772;2023-09-19T03:18:16;96985.00;;;18.40
19666;BMP180;9980;51.020;7.772;2023-09-19T03:20:53;96979.00;;;18.40
19666;BMP180;9980;51.020;7.772;2023-09-19T03:23:22;96984.00;;;18.40
19666;BMP180;9980;51.020;7.772;2023-09-19T03:25:50;96990.00;;;18.30
19666;BMP180;9980;51.020;7.772;2023-09-19T03:28:17;96984.00;;;18.30
19666;BMP180;9980;51.020;7.772;2023-09-19T03:30:44;97000.00;;;18.30
19666;BMP180;9980;51.020;7.772;2023-09-19T03:33:12;96996.00;;;18.30
19666;BMP180;9980;51.020;7.772;2023-09-19T03:35:39;97003.00;;;18.30
19666;BMP180;9980;51.020;7.772;2023-09-19T03:38:06;96993.00;;;18.30
19666;BMP180;9980;51.020;7.772;2023-09-19T03:40:33;97000.00;;;18.30
19666;BMP180;9980;51.020;7.772;2023-09-19T03:43:01;97000.00;;;18.30
19666;BMP180;9980;51.020;7.772;2023-09-19T03:45:29;97009.00;;;18.20
19666;BMP180;9980;51.020;7.772;2023-09-19T03:47:56;97011.00;;;18.20
19666;BMP180;9980;51.020;7.772;2023-09-19T03:50:24;97012.00;;;18.20
19666;BMP180;9980;51.020;7.772;2023-09-19T03:52:56;97011.00;;;18.20
19666;BMP180;9980;51.020;7.772;2023-09-19T03:55:23;97014.00;;;18.20
19666;BMP180;9980;51.020;7.772;2023-09-19T03:57:50;97006.00;;;18.10
19666;BMP180;9980;51.020;7.772;2023-09-19T04:00:18;97001.00;;;18.10
19666;BMP180;9980;51.020;7.772;2023-09-19T04:02:49;97010.00;;;18.10
19666;BMP180;9980;51.020;7.772;2023-09-19T04:05:16;97009.00;;;18.10
19666;BMP180;9980;51.020;7.772;2023-09-19T04:07:45;97019.00;;;18.10
19666;BMP180;9980;51.020;7.772;2023-09-19T04:10:13;97018.00;;;18.00
19666;BMP180;9980;51.020;7.772;2023-09-19T04:12:50;97007.00;;;18.00
19666;BMP180;9980;51.020;7.772;2023-09-19T04:15:17;97016.00;;;18.00
19666;BMP180;9980;51.020;7.772;2023-09-19T04:17:44;97013.00;;;18.00
19666;BMP180;9980;51.020;7.772;2023-09-19T04:20:11;97023.00;;;18.00
19666;BMP180;9980;51.020;7.772;2023-09-19T04:22:41;97024.00;;;17.90
19666;BMP180;9980;51.020;7.772;2023-09-19T04:25:08;97016.00;;;17.90
19666;BMP180;9980;51.020;7.772;2023-09-19T04:27:35;97019.00;;;17.90
19666;BMP180;9980;51.020;7.772;2023-09-19T04:30:04;97016.00;;;17.90
19666;BMP180;9980;51.020;7.772;2023-09-19T04:32:40;97033.00;;;17.80
19666;BMP180;9980;51.020;7.772;2023-09-19T04:35:10;97031.00;;;17.80
19666;BMP180;9980;51.020;7.772;2023-09-19T04:37:40;97025.00;;;17.70
19666;BMP180;9980;51.020;7.772;2023-09-19T04:40:10;97019.00;;;17.70
19666;BMP180;9980;51.020;7.772;2023-09-19T04:42:41;97015.00;;;17.70
19666;BMP180;9980;51.020;7.772;2023-09-19T04:45:09;97020.00;;;17.70
19666;BMP180;9980;51.020;7.772;2023-09-19T04:47:37;97023.00;;;17.70
19666;BMP180;9980;51.020;7.772;2023-09-19T04:50:09;97014.00;;;17.60
19666;BMP180;9980;51.020;7.772;2023-09-19T04:52:42;97018.00;;;17.60
19666;BMP180;9980;51.020;7.772;2023-09-19T04:55:15;97025.00;;;17.60
19666;BMP180;9980;51.020;7.772;2023-09-19T04:57:50;97015.00;;;17.60
19666;BMP180;9980;51.020;7.772;2023-09-19T05:00:19;97026.00;;;17.60
19666;BMP180;9980;51.020;7.772;2023-09-19T05:02:51;97030.00;;;17.60
19666;BMP180;9980;51.020;7.772;2023-09-19T05:05:18;97030.00;;;17.60
19666;BMP180;9980;51.020;7.772;2023-09-19T05:07:46;97029.00;;;17.60
19666;BMP180;9980;51.020;7.772;2023-09-19T05:10:15;97045.00;;;17.60
19666;BMP180;9980;51.020;7.772;2023-09-19T05:12:45;97031.00;;;17.50
19666;BMP180;9980;51.020;7.772;2023-09-19T05:15:15;97042.00;;;17.50
19666;BMP180;9980;51.020;7.772;2023-09-19T05:17:51;97047.00;;;17.50
19666;BMP180;9980;51.020;7.772;2023-09-19T05:20:23;97043.00;;;17.50
19666;BMP180;9980;51.020;7.772;2023-09-19T05:23:02;97057.00;;;17.50
19666;BMP180;9980;51.020;7.772;2023-09-19T05:25:33;97048.00;;;17.40
19666;BMP180;9980;51.020;7.772;2023-09-19T05:28:09;97059.00;;;17.40
19666;BMP180;9980;51.020;7.772;2023-09-19T05:30:38;97045.00;;;17.40
19666;BMP180;9980;51.020;7.772;2023-09-19T05:33:06;97055.00;;;17.40
19666;BMP180;9980;51.020;7.772;2023-09-19T05:35:34;97056.00;;;17.40
19666;BMP180;9980;51.020;7.772;2023-09-19T05:38:06;97065.00;;;17.40
19666;BMP180;9980;51.020;7.772;2023-09-19T05:40:35;97066.00;;;17.40
19666;BMP180;9980;51.020;7.772;2023-09-19T05:43:02;97059.00;;;17.40
19666;BMP180;9980;51.020;7.772;2023-09-19T05:45:32;97075.00;;;17.40
19666;BMP180;9980;51.020;7.772;2023-09-19T05:48:09;97075.00;;;17.30
19666;BMP180;9980;51.020;7.772;2023-09-19T05:50:37;97081.00;;;17.30
19666;BMP180;9980;51.020;7.772;2023-09-19T05:53:05;97090.00;;;17.30
19666;BMP180;9980;51.020;7.772;2023-09-19T05:55:33;97091.00;;;17.30
19666;BMP180;9980;51.020;7.772;2023-09-19T05:58:00;97101.00;;;17.40
19666;BMP180;9980;51.020;7.772;2023-09-19T06:00:27;97120.00;;;17.40
19666;BMP180;9980;51.020;7.772;2023-09-19T06:02:56;97107.00;;;17.30
19666;BMP180;9980;51.020;7.772;2023-09-19T06:05:25;97107.00;;;17.40
19666;BMP180;9980;51.020;7.772;2023-09-19T06:07:57;97106.00;;;17.30
19666;BMP180;9980;51.020;7.772;2023-09-19T06:10:28;97112.00;;;17.40
19666;BMP180;9980;51.020;7.772;2023-09-19T06:12:55;97111.00;;;17.30
19666;BMP180;9980;51.020;7.772;2023-09-19T06:15:24;97124.00;;;17.40
19666;BMP180;9980;51.020;7.772;2023-09-19T06:17:55;97129.00;;;17.40
19666;BMP180;9980;51.020;7.772;2023-09-19T06:20:24;97132.00;;;17.40
19666;BMP180;9980;51.020;7.772;2023-09-19T06:22:53;97121.00;;;17.40
19666;BMP180;9980;51.020;7.772;2023-09-19T06:25:21;97135.00;;;17.40
19666;BMP180;9980;51.020;7.772;2023-09-19T06:27:51;97136.00;;;17.40
19666;BMP180;9980;51.020;7.772;2023-09-19T06:30:23;97130.00;;;17.40
19666;BMP180;9980;51.020;7.772;2023-09-19T06:32:59;97152.00;;;17.40
19666;BMP180;9980;51.020;7.772;2023-09-19T06:35:28;97142.00;;;17.40
19666;BMP180;9980;51.020;7.772;2023-09-19T06:37:56;97142.00;;;17.50
19666;BMP180;9980;51.020;7.772;2023-09-19T06:40:25;97148.00;;;17.50
19666;BMP180;9980;51.020;7.772;2023-09-19T06:42:53;97151.00;;;17.50
19666;BMP180;9980;51.020;7.772;2023-09-19T06:45:20;97140.00;;;17.50
19666;BMP180;9980;51.020;7.772;2023-09-19T06:47:51;97150.00;;;17.60
19666;BMP180;9980;51.020;7.772;2023-09-19T06:50:21;97158.00;;;17.60
19666;BMP180;9980;51.020;7.772;2023-09-19T06:52:52;97166.00;;;17.60
19666;BMP180;9980;51.020;7.772;2023-09-19T06:55:20;97154.00;;;17.60
19666;BMP180;9980;51.020;7.772;2023-09-19T06:57:48;97150.00;;;17.70
19666;BMP180;9980;51.020;7.772;2023-09-19T07:00:16;97147.00;;;17.70
19666;BMP180;9980;51.020;7.772;2023-09-19T07:02:59;97162.00;;;17.70
19666;BMP180;9980;51.020;7.772;2023-09-19T07:05:28;97161.00;;;17.70
19666;BMP180;9980;51.020;7.772;2023-09-19T07:07:59;97152.00;;;17.80
19666;BMP180;9980;51.020;7.772;2023-09-19T07:10:27;97159.00;;;17.80
19666;BMP180;9980;51.020;7.772;2023-09-19T07:13:08;97163.00;;;17.80
19666;BMP180;9980;51.020;7.772;2023-09-19T07:15:39;97161.00;;;17.90
19666;BMP180;9980;51.020;7.772;2023-09-19T07:18:08;97167.00;;;17.90
19666;BMP180;9980;51.020;7.772;2023-09-19T07:20:38;97152.00;;;18.00
19666;BMP180;9980;51.020;7.772;2023-09-19T07:23:05;97153.00;;;18.00
19666;BMP180;9980;51.020;7.772;2023-09-19T07:25:32;97160.00;;;18.00
19666;BMP180;9980;51.020;7.772;2023-09-19T07:27:59;97164.00;;;18.10
19666;BMP180;9980;51.020;7.772;2023-09-19T07:30:28;97161.00;;;18.10
19666;BMP180;9980;51.020;7.772;2023-09-19T07:32:55;97158.00;;;18.10
19666;BMP180;9980;51.020;7.772;2023-09-19T07:35:23;97172.00;;;18.20
19666;BMP180;9980;51.020;7.772;2023-09-19T07:37:50;97167.00;;;18.30
19666;BMP180;9980;51.020;7.772;2023-09-19T07:40:19;97181.00;;;18.30
19666;BMP180;9980;51.020;7.772;2023-09-19T07:42:48;97166.00;;;18.30
19666;BMP180;9980;51.020;7.772;2023-09-19T07:45:16;97170.00;;;18.40
19666;BMP180;9980;51.020;7.772;2023-09-19T07:47:51;97167.00;;;18.40
19666;BMP180;9980;51.020;7.772;2023-09-19T07:50:19;97165.00;;;18.50
19666;BMP180;9980;51.020;7.772;2023-09-19T07:52:48;97177.00;;;18.50
19666;BMP180;9980;51.020;7.772;2023-09-19T07:55:17;97174.00;;;18.60
19666;BMP180;9980;51.020;7.772;2023-09-19T07:57:46;97169.00;;;18.60
19666;BMP180;9980;51.020;7.772;2023-09-19T08:00:14;97186.00;;;18.70
19666;BMP180;9980;51.020;7.772;2023-09-19T08:02:43;97180.00;;;18.70
19666;BMP180;9980;51.020;7.772;2023-09-19T08:05:12;97190.00;;;18.80
19666;BMP180;9980;51.020;7.772;2023-09-19T08:07:44;97189.00;;;18.80
19666;BMP180;9980;51.020;7.772;2023-09-19T08:10:12;97184.00;;;18.90
19666;BMP180;9980;51.020;7.772;2023-09-19T08:12:45;97193.00;;;18.90
19666;BMP180;9980;51.020;7.772;2023-09-19T08:15:20;97197.00;;;19.00
19666;BMP180;9980;51.020;7.772;2023-09-19T08:17:48;97177.00;;;19.00
19666;BMP180;9980;51.020;7.772;2023-09-19T08:20:16;97186.00;;;19.10
19666;BMP180;9980;51.020;7.772;2023-09-19T08:22:50;97198.00;;;19.10
19666;BMP180;9980;51.020;7.772;2023-09-19T08:25:19;97192.00;;;19.20
19666;BMP180;9980;51.020;7.772;2023-09-19T08:27:47;97193.00;;;19.20
19666;BMP180;9980;51.020;7.772;2023-09-19T08:30:21;97213.00;;;19.30
19666;BMP180;9980;51.020;7.772;2023-09-19T08:32:58;97203.00;;;19.30
19666;BMP180;9980;51.020;7.772;2023-09-19T08:35:27;97197.00;;;19.40
19666;BMP180;9980;51.020;7.772;2023-09-19T08:37:54;97183.00;;;19.50
19666;BMP180;9980;51.020;7.772;2023-09-19T08:40:23;97194.00;;;19.50
19666;BMP180;9980;51.020;7.772;2023-09-19T08:42:53;97191.00;;;19.50
19666;BMP180;9980;51.020;7.772;2023-09-19T08:45:22;97193.00;;;19.60
19666;BMP180;9980;51.020;7.772;2023-09-19T08:48:20;97192.00;;;19.60
19666;BMP180;9980;51.020;7.772;2023-09-19T08:51:03;97189.00;;;19.70
19666;BMP180;9980;51.020;7.772;2023-09-19T08:53:51;97190.00;;;19.70
19666;BMP180;9980;51.020;7.772;2023-09-19T08:56:19;97198.00;;;19.80
19666;BMP180;9980;51.020;7.772;2023-09-19T08:59:00;97186.00;;;19.80
19666;BMP180;9980;51.020;7.772;2023-09-19T09:01:31;97184.00;;;19.90
19666;BMP180;9980;51.020;7.772;2023-09-19T09:04:01;97198.00;;;20.00
19666;BMP180;9980;51.020;7.772;2023-09-19T09:06:31;97194.00;;;20.00
19666;BMP180;9980;51.020;7.772;2023-09-19T09:08:59;97207.00;;;20.10
19666;BMP180;9980;51.020;7.772;2023-09-19T09:11:26;97200.00;;;20.10
19666;BMP180;9980;51.020;7.772;2023-09-19T09:13:55;97213.00;;;20.20
19666;BMP180;9980;51.020;7.772;2023-09-19T09:16:22;97202.00;;;20.20
19666;BMP180;9980;51.020;7.772;2023-09-19T09:18:53;97205.00;;;20.30
19666;BMP180;9980;51.020;7.772;2023-09-19T09:21:24;97206.00;;;20.30
19666;BMP180;9980;51.020;7.772;2023-09-19T09:23:52;97206.00;;;20.40
19666;BMP180;9980;51.020;7.772;2023-09-19T09:26:49;97208.00;;;20.40
19666;BMP180;9980;51.020;7.772;2023-09-19T09:29:46;97212.00;;;20.40
19666;BMP180;9980;51.020;7.772;2023-09-19T09:32:28;97215.00;;;20.50
19666;BMP180;9980;51.020;7.772;2023-09-19T09:35:09;97222.00;;;20.60
19666;BMP180;9980;51.020;7.772;2023-09-19T09:37:36;97223.00;;;20.60
19666;BMP180;9980;51.020;7.772;2023-09-19T09:40:06;97216.00;;;20.70
19666;BMP180;9980;51.020;7.772;2023-09-19T09:42:42;97216.00;;;20.70
19666;BMP180;9980;51.020;7.772;2023-09-19T09:45:22;97208.00;;;20.70
19666;BMP180;9980;51.020;7.772;2023-09-19T09:47:55;97217.00;;;20.80
19666;BMP180;9980;51.020;7.772;2023-09-19T09:50:30;97205.00;;;20.80
19666;BMP180;9980;51.020;7.772;2023-09-19T09:53:27;97218.00;;;20.80
19666;BMP180;9980;51.020;7.772;2023-09-19T09:58:28;97223.00;;;21.00
19666;BMP180;9980;51.020;7.772;2023-09-19T10:00:59;97203.00;;;21.00
19666;BMP180;9980;51.020;7.772;2023-09-19T10:03:35;97215.00;;;21.00
19666;BMP180;9980;51.020;7.772;2023-09-19T10:06:11;97219.00;;;21.10
19666;BMP180;9980;51.020;7.772;2023-09-19T10:09:09;97202.00;;;21.10
19666;BMP180;9980;51.020;7.772;2023-09-19T10:11:44;97201.00;;;21.20
19666;BMP180;9980;51.020;7.772;2023-09-19T10:14:16;97195.00;;;21.30
19666;BMP180;9980;51.020;7.772;2023-09-19T10:16:48;97188.00;;;21.40
19666;BMP180;9980;51.020;7.772;2023-09-19T10:19:57;97207.00;;;21.40
19666;BMP180;9980;51.020;7.772;2023-09-19T10:22:34;97187.00;;;21.50
19666;BMP180;9980;51.020;7.772;2023-09-19T10:25:04;97187.00;;;21.60
19666;BMP180;9980;51.020;7.772;2023-09-19T10:27:35;97178.00;;;21.70
19666;BMP180;9980;51.020;7.772;2023-09-19T10:30:09;97181.00;;;21.70
19666;BMP180;9980;51.020;7.772;2023-09-19T10:32:40;97186.00;;;21.80
19666;BMP180;9980;51.020;7.772;2023-09-19T10:35:11;97183.00;;;21.90
19666;BMP180;9980;51.020;7.772;2023-09-19T10:37:40;97190.00;;;21.90
19666;BMP180;9980;51.020;7.772;2023-09-19T10:40:08;97201.00;;;21.90
19666;BMP180;9980;51.020;7.772;2023-09-19T10:42:40;97185.00;;;22.00
19666;BMP180;9980;51.020;7.772;2023-09-19T10:45:09;97183.00;;;22.00
19666;BMP180;9980;51.020;7.772;2023-09-19T10:47:40;97186.00;;;22.00
19666;BMP180;9980;51.020;7.772;2023-09-19T10:50:07;97185.00;;;22.10
19666;BMP180;9980;51.020;7.772;2023-09-19T10:52:41;97204.00;;;22.00
19666;BMP180;9980;51.020;7.772;2023-09-19T10:55:10;97200.00;;;22.10
19666;BMP180;9980;51.020;7.772;2023-09-19T10:57:44;97197.00;;;22.10
19666;BMP180;9980;51.020;7.772;2023-09-19T11:00:14;97200.00;;;22.20
19666;BMP180;9980;51.020;7.772;2023-09-19T11:08:59;97197.00;;;22.30
19666;BMP180;9980;51.020;7.772;2023-09-19T11:11:48;97194.00;;;22.30
19666;BMP180;9980;51.020;7.772;2023-09-19T11:30:48;97181.00;;;22.50
19666;BMP180;9980;51.020;7.772;2023-09-19T11:36:15;97169.00;;;22.50
19666;BMP180;9980;51.020;7.772;2023-09-19T11:46:27;97173.00;;;22.60
19666;BMP180;9980;51.020;7.772;2023-09-19T11:49:05;97178.00;;;22.70
19666;BMP180;9980;51.020;7.772;2023-09-19T11:51:41;97173.00;;;22.70
19666;BMP180;9980;51.020;7.772;2023-09-19T11:54:13;97184.00;;;22.90
19666;BMP180;9980;51.020;7.772;2023-09-19T11:56:45;97204.00;;;22.90
19666;BMP180;9980;51.020;7.772;2023-09-19T11:59:25;97194.00;;;23.00
19666;BMP180;9980;51.020;7.772;2023-09-19T12:02:08;97195.00;;;23.00
19666;BMP180;9980;51.020;7.772;2023-09-19T12:04:41;97204.00;;;23.00
19666;BMP180;9980;51.020;7.772;2023-09-19T12:07:13;97203.00;;;23.10
19666;BMP180;9980;51.020;7.772;2023-09-19T12:09:47;97186.00;;;23.10
19666;BMP180;9980;51.020;7.772;2023-09-19T12:12:23;97198.00;;;23.20
19666;BMP180;9980;51.020;7.772;2023-09-19T12:14:50;97198.00;;;23.20
19666;BMP180;9980;51.020;7.772;2023-09-19T12:17:18;97190.00;;;23.20
19666;BMP180;9980;51.020;7.772;2023-09-19T12:19:56;97198.00;;;23.20
19666;BMP180;9980;51.020;7.772;2023-09-19T12:22:23;97185.00;;;23.30
19666;BMP180;9980;51.020;7.772;2023-09-19T12:24:51;97195.00;;;23.40
19666;BMP180;9980;51.020;7.772;2023-09-19T12:27:21;97193.00;;;23.40
19666;BMP180;9980;51.020;7.772;2023-09-19T12:29:49;97194.00;;;23.40
19666;BMP180;9980;51.020;7.772;2023-09-19T12:32:16;97195.00;;;23.50
19666;BMP180;9980;51.020;7.772;2023-09-19T12:34:53;97204.00;;;23.50
19666;BMP180;9980;51.020;7.772;2023-09-19T12:37:22;97188.00;;;23.50
19666;BMP180;9980;51.020;7.772;2023-09-19T12:39:51;97186.00;;;23.50
19666;BMP180;9980;51.020;7.772;2023-09-19T12:42:25;97185.00;;;23.50
19666;BMP180;9980;51.020;7.772;2023-09-19T12:44:59;97188.00;;;23.60
19666;BMP180;9980;51.020;7.772;2023-09-19T12:47:28;97199.00;;;23.60
19666;BMP180;9980;51.020;7.772;2023-09-19T12:52:48;97183.00;;;23.50
19666;BMP180;9980;51.020;7.772;2023-09-19T12:55:28;97187.00;;;23.50
19666;BMP180;9980;51.020;7.772;2023-09-19T13:00:42;97166.00;;;23.50
19666;BMP180;9980;51.020;7.772;2023-09-19T13:05:57;97164.00;;;23.50
19666;BMP180;9980;51.020;7.772;2023-09-19T13:08:39;97166.00;;;23.50
19666;BMP180;9980;51.020;7.772;2023-09-19T13:11:16;97161.00;;;23.50
19666;BMP180;9980;51.020;7.772;2023-09-19T13:14:24;97161.00;;;23.60
19666;BMP180;9980;51.020;7.772;2023-09-19T13:17:05;97161.00;;;23.70
19666;BMP180;9980;51.020;7.772;2023-09-19T13:19:52;97165.00;;;23.80
19666;BMP180;9980;51.020;7.772;2023-09-19T13:22:40;97164.00;;;23.80
19666;BMP180;9980;51.020;7.772;2023-09-19T13:25:16;97152.00;;;23.90
19666;BMP180;9980;51.020;7.772;2023-09-19T13:27:55;97159.00;;;23.90
19666;BMP180;9980;51.020;7.772;2023-09-19T13:30:25;97142.00;;;24.00
19666;BMP180;9980;51.020;7.772;2023-09-19T13:33:05;97157.00;;;23.90
19666;BMP180;9980;51.020;7.772;2023-09-19T13:35:33;97138.00;;;24.00
19666;BMP180;9980;51.020;7.772;2023-09-19T13:38:00;97137.00;;;24.00
19666;BMP180;9980;51.020;7.772;2023-09-19T13:40:28;97130.00;;;24.00
19666;BMP180;9980;51.020;7.772;2023-09-19T13:42:58;97139.00;;;24.00
19666;BMP180;9980;51.020;7.772;2023-09-19T13:45:25;97126.00;;;24.00
19666;BMP180;9980;51.020;7.772;2023-09-19T13:47:57;97141.00;;;24.00
19666;BMP180;9980;51.020;7.772;2023-09-19T13:50:26;97139.00;;;24.00
19666;BMP180;9980;51.020;7.772;2023-09-19T13:52:55;97143.00;;;24.10
19666;BMP180;9980;51.020;7.772;2023-09-19T13:55:22;97137.00;;;24.10
19666;BMP180;9980;51.020;7.772;2023-09-19T13:57:50;97128.00;;;24.10
19666;BMP180;9980;51.020;7.772;2023-09-19T14:00:19;97122.00;;;24.10
19666;BMP180;9980;51.020;7.772;2023-09-19T14:02:46;97135.00;;;24.10
19666;BMP180;9980;51.020;7.772;2023-09-19T14:05:15;97126.00;;;24.20
19666;BMP180;9980;51.020;7.772;2023-09-19T14:07:43;97119.00;;;24.20
19666;BMP180;9980;51.020;7.772;2023-09-19T14:10:11;97128.00;;;24.20
19666;BMP180;9980;51.020;7.772;2023-09-19T14:12:39;97120.00;;;24.10
19666;BMP180;9980;51.020;7.772;2023-09-19T14:15:09;97129.00;;;24.10
19666;BMP180;9980;51.020;7.772;2023-09-19T14:17:39;97136.00;;;24.10
19666;BMP180;9980;51.020;7.772;2023-09-19T14:20:07;97135.00;;;24.10
19666;BMP180;9980;51.020;7.772;2023-09-19T14:22:37;97152.00;;;24.00
19666;BMP180;9980;51.020;7.772;2023-09-19T14:25:05;97149.00;;;24.00
19666;BMP180;9980;51.020;7.772;2023-09-19T14:27:32;97152.00;;;24.00
19666;BMP180;9980;51.020;7.772;2023-09-19T14:29:59;97136.00;;;24.00
19666;BMP180;9980;51.020;7.772;2023-09-19T14:32:26;97147.00;;;23.90
19666;BMP180;9980;51.020;7.772;2023-09-19T14:34:53;97148.00;;;23.90
19666;BMP180;9980;51.020;7.772;2023-09-19T14:37:20;97153.00;;;23.90
19666;BMP180;9980;51.020;7.772;2023-09-19T14:39:48;97140.00;;;23.80
19666;BMP180;9980;51.020;7.772;2023-09-19T14:42:14;97139.00;;;23.80
19666;BMP180;9980;51.020;7.772;2023-09-19T14:44:44;97135.00;;;23.70
19666;BMP180;9980;51.020;7.772;2023-09-19T14:47:11;97136.00;;;23.70
19666;BMP180;9980;51.020;7.772;2023-09-19T14:49:40;97145.00;;;23.70
19666;BMP180;9980;51.020;7.772;2023-09-19T14:52:09;97141.00;;;23.60
19666;BMP180;9980;51.020;7.772;2023-09-19T14:54:37;97132.00;;;23.60
19666;BMP180;9980;51.020;7.772;2023-09-19T14:57:08;97132.00;;;23.60
19666;BMP180;9980;51.020;7.772;2023-09-19T14:59:36;97146.00;;;23.60
19666;BMP180;9980;51.020;7.772;2023-09-19T15:02:06;97133.00;;;23.60
19666;BMP180;9980;51.020;7.772;2023-09-19T15:04:34;97124.00;;;23.60
19666;BMP180;9980;51.020;7.772;2023-09-19T15:07:01;97123.00;;;23.50
19666;BMP180;9980;51.020;7.772;2023-09-19T15:09:29;97136.00;;;23.50
19666;BMP180;9980;51.020;7.772;2023-09-19T15:11:58;97142.00;;;23.50
19666;BMP180;9980;51.020;7.772;2023-09-19T15:14:25;97144.00;;;23.50
19666;BMP180;9980;51.020;7.772;2023-09-19T15:16:52;97144.00;;;23.40
19666;BMP180;9980;51.020;7.772;2023-09-19T15:19:20;97136.00;;;23.40
19666;BMP180;9980;51.020;7.772;2023-09-19T15:21:49;97142.00;;;23.40
19666;BMP180;9980;51.020;7.772;2023-09-19T15:24:16;97138.00;;;23.30
19666;BMP180;9980;51.020;7.772;2023-09-19T15:26:43;97129.00;;;23.30
19666;BMP180;9980;51.020;7.772;2023-09-19T15:29:11;97122.00;;;23.30
19666;BMP180;9980;51.020;7.772;2023-09-19T15:31:40;97129.00;;;23.30
19666;BMP180;9980;51.020;7.772;2023-09-19T15:34:08;97136.00;;;23.20
19666;BMP180;9980;51.020;7.772;2023-09-19T15:36:36;97115.00;;;23.20